sensor_id;sensor_type;location;lat;lon;timestamp;P1;durP1;ratioP1;P2;durP2;ratioP2
12947;SDS011;6539;49.476;8.484;2022-12-29T00:00:59;2.80;;;2.17;;
12947;SDS011;6539;49.476;8.484;2022-12-29T00:03:26;3.37;;;2.40;;
12947;SDS011;6539;49.476;8.484;2022-12-29T00:05:55;4.07;;;2.10;;
12947;SDS011;6539;49.476;8.484;2022-12-29T00:08:22;4.23;;;1.87;;
12947;SDS011;6539;49.476;8.484;2022-12-29T00:11:04;3.13;;;1.63;;
12947;SDS011;6539;49.476;8.484;2022-12-29T00:13:39;3.03;;;2.13;;
12947;SDS011;6539;49.476;8.484;2022-12-29T00:16:29;5.30;;;2.13;;
12947;SDS011;6539;49.476;8.484;2022-12-29T00:18:56;3.57;;;1.90;;
12947;SDS011;6539;49.476;8.484;2022-12-29T00:21:22;4.77;;;1.80;;
12947;SDS011;6539;49.476;8.484;2022-12-29T00:24:12;4.00;;;1.73;;
12947;SDS011;6539;49.476;8.484;2022-12-29T00:27:04;2.70;;;1.57;;
12947;SDS011;6539;49.476;8.484;2022-12-29T00:29:58;2.23;;;1.50;;
12947;SDS011;6539;49.476;8.484;2022-12-29T00:32:42;2.23;;;1.57;;
12947;SDS011;6539;49.476;8.484;2022-12-29T00:37:59;1.90;;;1.53;;
12947;SDS011;6539;49.476;8.484;2022-12-29T00:40:49;3.83;;;1.90;;
12947;SDS011;6539;49.476;8.484;2022-12-29T00:43:33;2.30;;;1.70;;
12947;SDS011;6539;49.476;8.484;2022-12-29T00:46:20;2.40;;;1.73;;
12947;SDS011;6539;49.476;8.484;2022-12-29T00:48:48;2.47;;;1.50;;
12947;SDS011;6539;49.476;8.484;2022-12-29T00:51:32;2.63;;;1.50;;
12947;SDS011;6539;49.476;8.484;2022-12-29T00:54:01;2.83;;;1.57;;
12947;SDS011;6539;49.476;8.484;2022-12-29T00:56:28;3.53;;;2.17;;
12947;SDS011;6539;49.476;8.484;2022-12-29T00:58:54;3.80;;;1.97;;
12947;SDS011;6539;49.476;8.484;2022-12-29T01:01:20;3.33;;;1.93;;
12947;SDS011;6539;49.476;8.484;2022-12-29T01:03:46;4.50;;;2.40;;
12947;SDS011;6539;49.476;8.484;2022-12-29T01:06:14;2.83;;;2.00;;
12947;SDS011;6539;49.476;8.484;2022-12-29T01:08:40;3.27;;;1.90;;
12947;SDS011;6539;49.476;8.484;2022-12-29T01:11:07;2.37;;;1.87;;
12947;SDS011;6539;49.476;8.484;2022-12-29T01:13:38;2.73;;;2.00;;
12947;SDS011;6539;49.476;8.484;2022-12-29T01:16:06;4.90;;;1.77;;
12947;SDS011;6539;49.476;8.484;2022-12-29T01:18:36;4.23;;;1.90;;
12947;SDS011;6539;49.476;8.484;2022-12-29T01:21:05;3.10;;;1.67;;
12947;SDS011;6539;49.476;8.484;2022-12-29T01:23:31;2.20;;;1.70;;
12947;SDS011;6539;49.476;8.484;2022-12-29T01:26:07;3.53;;;1.70;;
12947;SDS011;6539;49.476;8.484;2022-12-29T01:28:40;3.43;;;1.50;;
12947;SDS011;6539;49.476;8.484;2022-12-29T01:31:07;2.87;;;1.70;;
12947;SDS011;6539;49.476;8.484;2022-12-29T01:33:37;2.97;;;1.67;;
12947;SDS011;6539;49.476;8.484;2022-12-29T01:36:07;3.57;;;1.40;;
12947;SDS011;6539;49.476;8.484;2022-12-29T01:38:36;2.83;;;1.20;;
12947;SDS011;6539;49.476;8.484;2022-12-29T01:41:04;1.83;;;1.47;;
12947;SDS011;6539;49.476;8.484;2022-12-29T01:46:15;1.00;;;1.00;;
12947;SDS011;6539;49.476;8.484;2022-12-29T01:51:33;2.90;;;1.40;;
12947;SDS011;6539;49.476;8.484;2022-12-29T01:54:04;2.20;;;1.17;;
12947;SDS011;6539;49.476;8.484;2022-12-29T01:56:46;1.60;;;1.20;;
12947;SDS011;6539;49.476;8.484;2022-12-29T01:59:16;1.60;;;1.30;;
12947;SDS011;6539;49.476;8.484;2022-12-29T02:01:53;1.00;;;1.00;;
12947;SDS011;6539;49.476;8.484;2022-12-29T02:04:19;1.57;;;1.17;;
12947;SDS011;6539;49.476;8.484;2022-12-29T02:06:51;1.20;;;1.10;;
12947;SDS011;6539;49.476;8.484;2022-12-29T02:09:29;1.70;;;1.10;;
12947;SDS011;6539;49.476;8.484;2022-12-29T02:11:58;3.47;;;0.90;;
12947;SDS011;6539;49.476;8.484;2022-12-29T02:14:28;1.60;;;1.20;;
12947;SDS011;6539;49.476;8.484;2022-12-29T02:26:55;2.90;;;1.20;;
12947;SDS011;6539;49.476;8.484;2022-12-29T02:35:29;1.33;;;1.23;;
12947;SDS011;6539;49.476;8.484;2022-12-29T02:41:45;2.87;;;1.20;;
12947;SDS011;6539;49.476;8.484;2022-12-29T02:44:55;2.43;;;1.50;;
12947;SDS011;6539;49.476;8.484;2022-12-29T02:47:50;1.17;;;1.10;;
12947;SDS011;6539;49.476;8.484;2022-12-29T02:50:23;2.93;;;1.27;;
12947;SDS011;6539;49.476;8.484;2022-12-29T02:53:15;3.00;;;1.50;;
12947;SDS011;6539;49.476;8.484;2022-12-29T02:56:06;3.63;;;1.47;;
12947;SDS011;6539;49.476;8.484;2022-12-29T02:58:32;1.87;;;1.67;;
12947;SDS011;6539;49.476;8.484;2022-12-29T03:06:56;2.33;;;1.70;;
12947;SDS011;6539;49.476;8.484;2022-12-29T03:12:48;1.37;;;1.20;;
12947;SDS011;6539;49.476;8.484;2022-12-29T03:22:00;1.53;;;1.20;;
12947;SDS011;6539;49.476;8.484;2022-12-29T03:24:52;2.53;;;1.50;;
12947;SDS011;6539;49.476;8.484;2022-12-29T03:27:25;1.43;;;1.33;;
12947;SDS011;6539;49.476;8.484;2022-12-29T03:29:58;1.70;;;1.47;;
12947;SDS011;6539;49.476;8.484;2022-12-29T03:35:35;2.90;;;1.73;;
12947;SDS011;6539;49.476;8.484;2022-12-29T03:38:08;1.43;;;1.30;;
12947;SDS011;6539;49.476;8.484;2022-12-29T03:41:16;2.20;;;1.23;;
12947;SDS011;6539;49.476;8.484;2022-12-29T03:43:48;1.97;;;1.30;;
12947;SDS011;6539;49.476;8.484;2022-12-29T03:46:13;3.27;;;1.67;;
12947;SDS011;6539;49.476;8.484;2022-12-29T03:48:39;4.13;;;1.30;;
12947;SDS011;6539;49.476;8.484;2022-12-29T03:51:05;2.27;;;1.20;;
12947;SDS011;6539;49.476;8.484;2022-12-29T03:53:33;3.50;;;1.50;;
12947;SDS011;6539;49.476;8.484;2022-12-29T03:55:58;3.70;;;1.43;;
12947;SDS011;6539;49.476;8.484;2022-12-29T03:58:26;1.40;;;1.30;;
12947;SDS011;6539;49.476;8.484;2022-12-29T04:00:52;4.97;;;2.23;;
12947;SDS011;6539;49.476;8.484;2022-12-29T04:03:22;2.43;;;1.33;;
12947;SDS011;6539;49.476;8.484;2022-12-29T04:05:48;2.23;;;1.70;;
12947;SDS011;6539;49.476;8.484;2022-12-29T04:08:14;2.27;;;1.30;;
12947;SDS011;6539;49.476;8.484;2022-12-29T04:10:42;1.63;;;1.40;;
12947;SDS011;6539;49.476;8.484;2022-12-29T04:13:08;2.40;;;1.30;;
12947;SDS011;6539;49.476;8.484;2022-12-29T04:15:38;2.27;;;1.43;;
12947;SDS011;6539;49.476;8.484;2022-12-29T04:18:07;1.40;;;1.10;;
12947;SDS011;6539;49.476;8.484;2022-12-29T04:20:33;2.03;;;1.20;;
12947;SDS011;6539;49.476;8.484;2022-12-29T04:23:17;2.90;;;1.30;;
12947;SDS011;6539;49.476;8.484;2022-12-29T04:25:44;2.30;;;1.30;;
12947;SDS011;6539;49.476;8.484;2022-12-29T04:28:16;2.50;;;1.63;;
12947;SDS011;6539;49.476;8.484;2022-12-29T04:30:43;2.67;;;1.57;;
12947;SDS011;6539;49.476;8.484;2022-12-29T04:33:09;1.67;;;1.40;;
12947;SDS011;6539;49.476;8.484;2022-12-29T04:35:35;2.77;;;1.30;;
12947;SDS011;6539;49.476;8.484;2022-12-29T04:38:01;1.30;;;1.20;;
12947;SDS011;6539;49.476;8.484;2022-12-29T04:40:30;1.53;;;1.13;;
12947;SDS011;6539;49.476;8.484;2022-12-29T04:42:58;1.70;;;1.30;;
12947;SDS011;6539;49.476;8.484;2022-12-29T04:45:24;3.30;;;1.70;;
12947;SDS011;6539;49.476;8.484;2022-12-29T04:47:49;1.83;;;1.17;;
12947;SDS011;6539;49.476;8.484;2022-12-29T04:50:15;1.30;;;1.20;;
12947;SDS011;6539;49.476;8.484;2022-12-29T04:52:44;1.53;;;1.30;;
12947;SDS011;6539;49.476;8.484;2022-12-29T04:55:09;1.57;;;1.20;;
12947;SDS011;6539;49.476;8.484;2022-12-29T04:57:35;1.40;;;1.30;;
12947;SDS011;6539;49.476;8.484;2022-12-29T05:00:02;2.40;;;1.40;;
12947;SDS011;6539;49.476;8.484;2022-12-29T05:02:29;3.40;;;1.50;;
12947;SDS011;6539;49.476;8.484;2022-12-29T05:04:55;3.63;;;1.40;;
12947;SDS011;6539;49.476;8.484;2022-12-29T05:07:20;2.50;;;1.50;;
12947;SDS011;6539;49.476;8.484;2022-12-29T05:09:46;1.20;;;1.10;;
12947;SDS011;6539;49.476;8.484;2022-12-29T05:12:15;1.40;;;1.30;;
12947;SDS011;6539;49.476;8.484;2022-12-29T05:14:40;1.73;;;1.47;;
12947;SDS011;6539;49.476;8.484;2022-12-29T05:17:07;1.67;;;1.30;;
12947;SDS011;6539;49.476;8.484;2022-12-29T05:19:32;1.50;;;1.40;;
12947;SDS011;6539;49.476;8.484;2022-12-29T05:21:58;1.30;;;1.20;;
12947;SDS011;6539;49.476;8.484;2022-12-29T05:24:26;1.33;;;1.23;;
12947;SDS011;6539;49.476;8.484;2022-12-29T05:26:52;1.60;;;1.17;;
12947;SDS011;6539;49.476;8.484;2022-12-29T05:29:17;1.60;;;1.20;;
12947;SDS011;6539;49.476;8.484;2022-12-29T05:31:43;1.67;;;1.17;;
12947;SDS011;6539;49.476;8.484;2022-12-29T05:34:10;1.20;;;1.10;;
12947;SDS011;6539;49.476;8.484;2022-12-29T05:36:43;1.60;;;1.20;;
12947;SDS011;6539;49.476;8.484;2022-12-29T05:39:09;1.53;;;1.43;;
12947;SDS011;6539;49.476;8.484;2022-12-29T05:41:35;2.77;;;1.30;;
12947;SDS011;6539;49.476;8.484;2022-12-29T05:44:00;2.10;;;1.20;;
12947;SDS011;6539;49.476;8.484;2022-12-29T05:46:29;1.57;;;1.23;;
12947;SDS011;6539;49.476;8.484;2022-12-29T05:48:55;2.07;;;1.10;;
12947;SDS011;6539;49.476;8.484;2022-12-29T05:51:21;2.63;;;1.50;;
12947;SDS011;6539;49.476;8.484;2022-12-29T05:53:49;3.53;;;1.47;;
12947;SDS011;6539;49.476;8.484;2022-12-29T05:56:18;3.80;;;1.27;;
12947;SDS011;6539;49.476;8.484;2022-12-29T05:58:46;1.63;;;1.37;;
12947;SDS011;6539;49.476;8.484;2022-12-29T06:01:14;4.27;;;1.50;;
12947;SDS011;6539;49.476;8.484;2022-12-29T06:03:44;1.50;;;1.40;;
12947;SDS011;6539;49.476;8.484;2022-12-29T06:06:12;3.50;;;1.50;;
12947;SDS011;6539;49.476;8.484;2022-12-29T06:08:43;3.80;;;1.50;;
12947;SDS011;6539;49.476;8.484;2022-12-29T06:11:11;1.47;;;1.10;;
12947;SDS011;6539;49.476;8.484;2022-12-29T06:13:37;2.23;;;1.20;;
12947;SDS011;6539;49.476;8.484;2022-12-29T06:16:03;1.33;;;1.20;;
12947;SDS011;6539;49.476;8.484;2022-12-29T06:18:32;1.70;;;1.30;;
12947;SDS011;6539;49.476;8.484;2022-12-29T06:21:03;1.90;;;1.23;;
12947;SDS011;6539;49.476;8.484;2022-12-29T06:23:32;1.83;;;1.30;;
12947;SDS011;6539;49.476;8.484;2022-12-29T06:26:02;2.30;;;1.37;;
12947;SDS011;6539;49.476;8.484;2022-12-29T06:28:28;1.70;;;1.50;;
12947;SDS011;6539;49.476;8.484;2022-12-29T06:31:00;3.50;;;1.43;;
12947;SDS011;6539;49.476;8.484;2022-12-29T06:33:28;2.33;;;1.50;;
12947;SDS011;6539;49.476;8.484;2022-12-29T06:35:57;4.27;;;1.60;;
12947;SDS011;6539;49.476;8.484;2022-12-29T06:38:28;1.63;;;1.30;;
12947;SDS011;6539;49.476;8.484;2022-12-29T06:40:54;1.97;;;1.30;;
12947;SDS011;6539;49.476;8.484;2022-12-29T06:43:21;2.77;;;1.57;;
12947;SDS011;6539;49.476;8.484;2022-12-29T06:45:51;2.83;;;1.60;;
12947;SDS011;6539;49.476;8.484;2022-12-29T06:48:17;1.90;;;1.40;;
12947;SDS011;6539;49.476;8.484;2022-12-29T06:50:49;2.13;;;1.57;;
12947;SDS011;6539;49.476;8.484;2022-12-29T06:53:17;2.23;;;1.90;;
12947;SDS011;6539;49.476;8.484;2022-12-29T06:55:42;2.30;;;1.50;;
12947;SDS011;6539;49.476;8.484;2022-12-29T06:58:10;1.60;;;1.33;;
12947;SDS011;6539;49.476;8.484;2022-12-29T07:00:38;3.40;;;1.77;;
12947;SDS011;6539;49.476;8.484;2022-12-29T07:03:04;1.80;;;1.47;;
12947;SDS011;6539;49.476;8.484;2022-12-29T07:05:32;2.23;;;1.23;;
12947;SDS011;6539;49.476;8.484;2022-12-29T07:07:58;1.60;;;1.40;;
12947;SDS011;6539;49.476;8.484;2022-12-29T07:10:25;2.93;;;1.47;;
12947;SDS011;6539;49.476;8.484;2022-12-29T07:12:53;2.40;;;1.70;;
12947;SDS011;6539;49.476;8.484;2022-12-29T07:15:19;1.60;;;1.50;;
12947;SDS011;6539;49.476;8.484;2022-12-29T07:17:45;3.37;;;1.43;;
12947;SDS011;6539;49.476;8.484;2022-12-29T07:20:13;2.30;;;1.50;;
12947;SDS011;6539;49.476;8.484;2022-12-29T07:22:39;3.33;;;1.47;;
12947;SDS011;6539;49.476;8.484;2022-12-29T07:25:07;2.43;;;1.80;;
12947;SDS011;6539;49.476;8.484;2022-12-29T07:27:35;2.67;;;1.60;;
12947;SDS011;6539;49.476;8.484;2022-12-29T07:30:03;2.30;;;1.93;;
12947;SDS011;6539;49.476;8.484;2022-12-29T07:32:33;1.77;;;1.50;;
12947;SDS011;6539;49.476;8.484;2022-12-29T07:34:59;2.37;;;1.60;;
12947;SDS011;6539;49.476;8.484;2022-12-29T07:37:25;2.20;;;1.50;;
12947;SDS011;6539;49.476;8.484;2022-12-29T07:39:51;2.03;;;1.33;;
12947;SDS011;6539;49.476;8.484;2022-12-29T07:42:19;3.50;;;1.30;;
12947;SDS011;6539;49.476;8.484;2022-12-29T07:44:44;3.37;;;1.63;;
12947;SDS011;6539;49.476;8.484;2022-12-29T07:47:10;4.03;;;1.67;;
12947;SDS011;6539;49.476;8.484;2022-12-29T07:49:36;2.47;;;1.30;;
12947;SDS011;6539;49.476;8.484;2022-12-29T07:52:02;2.80;;;1.63;;
12947;SDS011;6539;49.476;8.484;2022-12-29T07:54:30;2.93;;;1.90;;
12947;SDS011;6539;49.476;8.484;2022-12-29T07:56:56;2.90;;;1.83;;
12947;SDS011;6539;49.476;8.484;2022-12-29T07:59:22;5.00;;;1.87;;
12947;SDS011;6539;49.476;8.484;2022-12-29T08:01:50;2.37;;;1.70;;
12947;SDS011;6539;49.476;8.484;2022-12-29T08:04:16;7.03;;;2.03;;
12947;SDS011;6539;49.476;8.484;2022-12-29T08:06:44;2.30;;;1.80;;
12947;SDS011;6539;49.476;8.484;2022-12-29T08:09:12;2.83;;;1.73;;
12947;SDS011;6539;49.476;8.484;2022-12-29T08:11:41;2.57;;;1.80;;
12947;SDS011;6539;49.476;8.484;2022-12-29T08:14:07;3.77;;;1.80;;
12947;SDS011;6539;49.476;8.484;2022-12-29T08:16:36;5.90;;;2.03;;
12947;SDS011;6539;49.476;8.484;2022-12-29T08:19:02;2.97;;;1.80;;
12947;SDS011;6539;49.476;8.484;2022-12-29T08:21:28;2.07;;;1.70;;
12947;SDS011;6539;49.476;8.484;2022-12-29T08:23:57;2.73;;;1.93;;
12947;SDS011;6539;49.476;8.484;2022-12-29T08:26:24;2.27;;;1.73;;
12947;SDS011;6539;49.476;8.484;2022-12-29T08:28:51;2.53;;;2.20;;
12947;SDS011;6539;49.476;8.484;2022-12-29T08:31:19;2.13;;;1.93;;
12947;SDS011;6539;49.476;8.484;2022-12-29T08:33:48;4.60;;;2.00;;
12947;SDS011;6539;49.476;8.484;2022-12-29T08:36:15;2.10;;;1.90;;
12947;SDS011;6539;49.476;8.484;2022-12-29T08:38:43;4.20;;;1.90;;
12947;SDS011;6539;49.476;8.484;2022-12-29T08:41:09;3.13;;;1.57;;
12947;SDS011;6539;49.476;8.484;2022-12-29T08:43:37;5.37;;;2.20;;
12947;SDS011;6539;49.476;8.484;2022-12-29T08:46:05;3.87;;;1.87;;
12947;SDS011;6539;49.476;8.484;2022-12-29T08:48:33;2.63;;;1.77;;
12947;SDS011;6539;49.476;8.484;2022-12-29T08:51:01;3.23;;;1.80;;
12947;SDS011;6539;49.476;8.484;2022-12-29T08:53:27;2.37;;;2.00;;
12947;SDS011;6539;49.476;8.484;2022-12-29T08:55:57;4.70;;;1.90;;
12947;SDS011;6539;49.476;8.484;2022-12-29T08:58:25;4.13;;;1.70;;
12947;SDS011;6539;49.476;8.484;2022-12-29T09:00:52;3.87;;;1.90;;
12947;SDS011;6539;49.476;8.484;2022-12-29T09:03:19;3.63;;;1.87;;
12947;SDS011;6539;49.476;8.484;2022-12-29T09:05:50;2.57;;;1.87;;
12947;SDS011;6539;49.476;8.484;2022-12-29T09:08:20;2.20;;;1.80;;
12947;SDS011;6539;49.476;8.484;2022-12-29T09:10:47;3.37;;;1.80;;
12947;SDS011;6539;49.476;8.484;2022-12-29T09:13:17;4.67;;;2.10;;
12947;SDS011;6539;49.476;8.484;2022-12-29T09:15:48;2.87;;;1.90;;
12947;SDS011;6539;49.476;8.484;2022-12-29T09:18:23;5.67;;;2.17;;
12947;SDS011;6539;49.476;8.484;2022-12-29T09:20:57;2.80;;;1.90;;
12947;SDS011;6539;49.476;8.484;2022-12-29T09:23:28;3.50;;;1.83;;
12947;SDS011;6539;49.476;8.484;2022-12-29T09:25:56;4.50;;;1.90;;
12947;SDS011;6539;49.476;8.484;2022-12-29T09:28:28;2.40;;;1.70;;
12947;SDS011;6539;49.476;8.484;2022-12-29T09:30:54;2.20;;;2.00;;
12947;SDS011;6539;49.476;8.484;2022-12-29T09:33:24;4.37;;;1.77;;
12947;SDS011;6539;49.476;8.484;2022-12-29T09:35:51;2.50;;;1.97;;
12947;SDS011;6539;49.476;8.484;2022-12-29T09:38:25;2.37;;;2.10;;
12947;SDS011;6539;49.476;8.484;2022-12-29T09:40:53;3.43;;;1.80;;
12947;SDS011;6539;49.476;8.484;2022-12-29T09:46:40;2.97;;;1.67;;
12947;SDS011;6539;49.476;8.484;2022-12-29T09:51:56;2.60;;;1.93;;
12947;SDS011;6539;49.476;8.484;2022-12-29T09:54:36;2.73;;;1.53;;
12947;SDS011;6539;49.476;8.484;2022-12-29T09:57:16;3.47;;;1.50;;
12947;SDS011;6539;49.476;8.484;2022-12-29T10:00:00;4.93;;;2.20;;
12947;SDS011;6539;49.476;8.484;2022-12-29T10:02:40;3.37;;;2.03;;
12947;SDS011;6539;49.476;8.484;2022-12-29T10:22:36;2.63;;;1.80;;
12947;SDS011;6539;49.476;8.484;2022-12-29T10:25:24;4.17;;;1.90;;
12947;SDS011;6539;49.476;8.484;2022-12-29T10:27:56;2.73;;;2.10;;
12947;SDS011;6539;49.476;8.484;2022-12-29T10:30:28;5.63;;;2.07;;
12947;SDS011;6539;49.476;8.484;2022-12-29T10:32:58;3.77;;;1.90;;
12947;SDS011;6539;49.476;8.484;2022-12-29T10:35:36;2.57;;;2.20;;
12947;SDS011;6539;49.476;8.484;2022-12-29T10:43:49;4.67;;;2.47;;
12947;SDS011;6539;49.476;8.484;2022-12-29T10:46:20;2.03;;;1.83;;
12947;SDS011;6539;49.476;8.484;2022-12-29T10:48:55;5.13;;;2.20;;
12947;SDS011;6539;49.476;8.484;2022-12-29T10:51:28;5.10;;;1.83;;
12947;SDS011;6539;49.476;8.484;2022-12-29T10:56:47;3.07;;;1.90;;
12947;SDS011;6539;49.476;8.484;2022-12-29T10:59:23;2.87;;;2.23;;
12947;SDS011;6539;49.476;8.484;2022-12-29T11:07:27;3.47;;;1.90;;
12947;SDS011;6539;49.476;8.484;2022-12-29T11:09:55;4.03;;;1.90;;
12947;SDS011;6539;49.476;8.484;2022-12-29T11:12:41;2.87;;;1.87;;
12947;SDS011;6539;49.476;8.484;2022-12-29T11:15:23;4.50;;;1.90;;
12947;SDS011;6539;49.476;8.484;2022-12-29T11:17:52;2.23;;;1.77;;
12947;SDS011;6539;49.476;8.484;2022-12-29T11:20:36;1.90;;;1.70;;
12947;SDS011;6539;49.476;8.484;2022-12-29T11:23:04;4.47;;;1.90;;
12947;SDS011;6539;49.476;8.484;2022-12-29T11:31:55;2.30;;;1.67;;
12947;SDS011;6539;49.476;8.484;2022-12-29T11:37:02;5.00;;;2.00;;
12947;SDS011;6539;49.476;8.484;2022-12-29T11:45:06;3.63;;;1.60;;
12947;SDS011;6539;49.476;8.484;2022-12-29T11:48:19;2.47;;;1.67;;
12947;SDS011;6539;49.476;8.484;2022-12-29T11:50:48;7.57;;;1.70;;
12947;SDS011;6539;49.476;8.484;2022-12-29T11:53:24;4.00;;;3.33;;
12947;SDS011;6539;49.476;8.484;2022-12-29T11:56:20;2.37;;;1.70;;
12947;SDS011;6539;49.476;8.484;2022-12-29T12:01:52;4.03;;;1.77;;
12947;SDS011;6539;49.476;8.484;2022-12-29T12:04:23;4.10;;;1.73;;
12947;SDS011;6539;49.476;8.484;2022-12-29T12:07:02;2.77;;;1.70;;
12947;SDS011;6539;49.476;8.484;2022-12-29T12:09:50;3.70;;;1.77;;
12947;SDS011;6539;49.476;8.484;2022-12-29T12:15:17;2.83;;;1.77;;
12947;SDS011;6539;49.476;8.484;2022-12-29T12:20:48;1.33;;;1.03;;
12947;SDS011;6539;49.476;8.484;2022-12-29T12:26:17;1.83;;;1.00;;
12947;SDS011;6539;49.476;8.484;2022-12-29T12:29:03;1.27;;;1.00;;
12947;SDS011;6539;49.476;8.484;2022-12-29T12:31:46;1.50;;;0.90;;
12947;SDS011;6539;49.476;8.484;2022-12-29T12:34:44;2.03;;;1.23;;
12947;SDS011;6539;49.476;8.484;2022-12-29T12:46:03;2.33;;;1.77;;
12947;SDS011;6539;49.476;8.484;2022-12-29T12:57:46;2.57;;;1.40;;
12947;SDS011;6539;49.476;8.484;2022-12-29T13:00:26;1.67;;;1.43;;
12947;SDS011;6539;49.476;8.484;2022-12-29T13:03:10;3.97;;;1.47;;
12947;SDS011;6539;49.476;8.484;2022-12-29T13:06:21;3.13;;;1.50;;
12947;SDS011;6539;49.476;8.484;2022-12-29T13:21:02;2.30;;;1.30;;
12947;SDS011;6539;49.476;8.484;2022-12-29T13:24:13;2.67;;;1.27;;
12947;SDS011;6539;49.476;8.484;2022-12-29T13:26:48;3.40;;;1.30;;
12947;SDS011;6539;49.476;8.484;2022-12-29T13:40:55;3.20;;;1.13;;
12947;SDS011;6539;49.476;8.484;2022-12-29T13:43:30;1.47;;;1.00;;
12947;SDS011;6539;49.476;8.484;2022-12-29T13:46:12;2.83;;;1.40;;
12947;SDS011;6539;49.476;8.484;2022-12-29T13:51:29;2.40;;;1.30;;
12947;SDS011;6539;49.476;8.484;2022-12-29T13:54:12;0.93;;;0.70;;
12947;SDS011;6539;49.476;8.484;2022-12-29T13:59:52;1.50;;;0.90;;
12947;SDS011;6539;49.476;8.484;2022-12-29T14:07:45;3.17;;;1.03;;
12947;SDS011;6539;49.476;8.484;2022-12-29T14:13:16;2.70;;;0.90;;
12947;SDS011;6539;49.476;8.484;2022-12-29T14:15:54;1.87;;;0.87;;
12947;SDS011;6539;49.476;8.484;2022-12-29T14:23:44;2.23;;;1.17;;
12947;SDS011;6539;49.476;8.484;2022-12-29T14:28:56;2.33;;;1.07;;
12947;SDS011;6539;49.476;8.484;2022-12-29T14:31:54;1.97;;;1.20;;
12947;SDS011;6539;49.476;8.484;2022-12-29T14:50:07;1.33;;;1.23;;
12947;SDS011;6539;49.476;8.484;2022-12-29T14:53:05;4.17;;;1.97;;
12947;SDS011;6539;49.476;8.484;2022-12-29T14:55:57;3.93;;;1.30;;
12947;SDS011;6539;49.476;8.484;2022-12-29T14:58:29;3.57;;;1.07;;
12947;SDS011;6539;49.476;8.484;2022-12-29T15:01:17;1.87;;;0.93;;
12947;SDS011;6539;49.476;8.484;2022-12-29T15:04:15;2.30;;;1.03;;
12947;SDS011;6539;49.476;8.484;2022-12-29T15:06:50;2.13;;;0.93;;
12947;SDS011;6539;49.476;8.484;2022-12-29T15:14:52;2.30;;;0.90;;
12947;SDS011;6539;49.476;8.484;2022-12-29T15:17:28;3.03;;;1.10;;
12947;SDS011;6539;49.476;8.484;2022-12-29T15:19:56;3.57;;;0.90;;
12947;SDS011;6539;49.476;8.484;2022-12-29T15:22:24;3.67;;;1.30;;
12947;SDS011;6539;49.476;8.484;2022-12-29T15:24:51;3.30;;;1.20;;
12947;SDS011;6539;49.476;8.484;2022-12-29T15:27:23;2.30;;;1.52;;
12947;SDS011;6539;49.476;8.484;2022-12-29T15:30:02;3.20;;;1.47;;
12947;SDS011;6539;49.476;8.484;2022-12-29T15:32:42;3.43;;;1.00;;
12947;SDS011;6539;49.476;8.484;2022-12-29T15:38:15;2.47;;;1.30;;
12947;SDS011;6539;49.476;8.484;2022-12-29T15:40:56;3.73;;;1.47;;
12947;SDS011;6539;49.476;8.484;2022-12-29T15:46:39;3.23;;;1.23;;
12947;SDS011;6539;49.476;8.484;2022-12-29T15:49:06;3.70;;;1.60;;
12947;SDS011;6539;49.476;8.484;2022-12-29T15:51:37;1.57;;;1.40;;
12947;SDS011;6539;49.476;8.484;2022-12-29T15:54:12;2.43;;;1.50;;
12947;SDS011;6539;49.476;8.484;2022-12-29T15:56:46;3.93;;;1.50;;
12947;SDS011;6539;49.476;8.484;2022-12-29T15:59:22;2.60;;;1.20;;
12947;SDS011;6539;49.476;8.484;2022-12-29T16:01:48;1.30;;;1.20;;
12947;SDS011;6539;49.476;8.484;2022-12-29T16:04:15;3.97;;;1.57;;
12947;SDS011;6539;49.476;8.484;2022-12-29T16:09:36;3.53;;;1.20;;
12947;SDS011;6539;49.476;8.484;2022-12-29T16:12:52;3.50;;;1.30;;
12947;SDS011;6539;49.476;8.484;2022-12-29T16:15:03;4.10;;;1.30;;
12947;SDS011;6539;49.476;8.484;2022-12-29T16:17:46;2.90;;;1.43;;
12947;SDS011;6539;49.476;8.484;2022-12-29T16:20:17;2.67;;;1.50;;
12947;SDS011;6539;49.476;8.484;2022-12-29T16:22:57;4.20;;;1.37;;
12947;SDS011;6539;49.476;8.484;2022-12-29T16:25:28;3.10;;;1.13;;
12947;SDS011;6539;49.476;8.484;2022-12-29T16:28:02;4.33;;;1.37;;
12947;SDS011;6539;49.476;8.484;2022-12-29T16:30:46;2.30;;;1.30;;
12947;SDS011;6539;49.476;8.484;2022-12-29T16:33:29;1.97;;;1.10;;
12947;SDS011;6539;49.476;8.484;2022-12-29T16:36:24;2.97;;;1.00;;
12947;SDS011;6539;49.476;8.484;2022-12-29T16:42:32;1.53;;;1.30;;
12947;SDS011;6539;49.476;8.484;2022-12-29T16:50:43;4.80;;;1.53;;
12947;SDS011;6539;49.476;8.484;2022-12-29T16:53:21;4.23;;;2.50;;
12947;SDS011;6539;49.476;8.484;2022-12-29T16:55:55;3.57;;;2.30;;
12947;SDS011;6539;49.476;8.484;2022-12-29T16:58:28;2.10;;;1.73;;
12947;SDS011;6539;49.476;8.484;2022-12-29T17:00:56;4.00;;;1.63;;
12947;SDS011;6539;49.476;8.484;2022-12-29T17:03:31;4.60;;;1.80;;
12947;SDS011;6539;49.476;8.484;2022-12-29T17:06:03;3.47;;;1.70;;
12947;SDS011;6539;49.476;8.484;2022-12-29T17:08:37;3.67;;;1.60;;
12947;SDS011;6539;49.476;8.484;2022-12-29T17:11:08;3.47;;;1.80;;
12947;SDS011;6539;49.476;8.484;2022-12-29T17:17:21;3.70;;;1.57;;
12947;SDS011;6539;49.476;8.484;2022-12-29T17:22:44;3.90;;;1.43;;
12947;SDS011;6539;49.476;8.484;2022-12-29T17:25:13;3.20;;;1.47;;
12947;SDS011;6539;49.476;8.484;2022-12-29T17:27:51;2.33;;;1.73;;
12947;SDS011;6539;49.476;8.484;2022-12-29T17:30:35;3.43;;;1.73;;
12947;SDS011;6539;49.476;8.484;2022-12-29T17:33:09;3.63;;;1.90;;
12947;SDS011;6539;49.476;8.484;2022-12-29T17:35:43;4.43;;;1.40;;
12947;SDS011;6539;49.476;8.484;2022-12-29T17:38:16;2.90;;;1.67;;
12947;SDS011;6539;49.476;8.484;2022-12-29T17:40:45;3.60;;;2.20;;
12947;SDS011;6539;49.476;8.484;2022-12-29T17:43:14;4.00;;;2.50;;
12947;SDS011;6539;49.476;8.484;2022-12-29T17:45:51;3.00;;;2.00;;
12947;SDS011;6539;49.476;8.484;2022-12-29T17:48:27;3.67;;;2.33;;
12947;SDS011;6539;49.476;8.484;2022-12-29T17:50:56;5.00;;;1.97;;
12947;SDS011;6539;49.476;8.484;2022-12-29T17:53:26;4.17;;;2.27;;
12947;SDS011;6539;49.476;8.484;2022-12-29T17:55:56;4.57;;;1.90;;
12947;SDS011;6539;49.476;8.484;2022-12-29T17:58:28;5.03;;;2.00;;
12947;SDS011;6539;49.476;8.484;2022-12-29T18:00:57;3.40;;;2.37;;
12947;SDS011;6539;49.476;8.484;2022-12-29T18:03:35;3.70;;;2.60;;
12947;SDS011;6539;49.476;8.484;2022-12-29T18:06:05;4.53;;;2.27;;
12947;SDS011;6539;49.476;8.484;2022-12-29T18:08:35;3.80;;;2.10;;
12947;SDS011;6539;49.476;8.484;2022-12-29T18:11:05;2.80;;;2.10;;
12947;SDS011;6539;49.476;8.484;2022-12-29T18:13:47;2.40;;;1.93;;
12947;SDS011;6539;49.476;8.484;2022-12-29T18:16:13;4.23;;;2.30;;
12947;SDS011;6539;49.476;8.484;2022-12-29T18:18:38;2.23;;;2.03;;
12947;SDS011;6539;49.476;8.484;2022-12-29T18:21:04;4.20;;;2.13;;
12947;SDS011;6539;49.476;8.484;2022-12-29T18:23:31;3.57;;;2.40;;
12947;SDS011;6539;49.476;8.484;2022-12-29T18:26:04;4.90;;;2.23;;
12947;SDS011;6539;49.476;8.484;2022-12-29T18:28:37;3.20;;;2.07;;
12947;SDS011;6539;49.476;8.484;2022-12-29T18:31:02;2.77;;;2.00;;
12947;SDS011;6539;49.476;8.484;2022-12-29T18:33:30;4.77;;;2.53;;
12947;SDS011;6539;49.476;8.484;2022-12-29T18:36:04;2.63;;;2.30;;
12947;SDS011;6539;49.476;8.484;2022-12-29T18:38:30;3.80;;;1.90;;
12947;SDS011;6539;49.476;8.484;2022-12-29T18:40:57;3.30;;;2.17;;
12947;SDS011;6539;49.476;8.484;2022-12-29T18:43:23;6.17;;;1.97;;
12947;SDS011;6539;49.476;8.484;2022-12-29T18:45:52;7.47;;;2.10;;
12947;SDS011;6539;49.476;8.484;2022-12-29T18:48:18;6.90;;;2.40;;
12947;SDS011;6539;49.476;8.484;2022-12-29T18:50:48;5.37;;;2.13;;
12947;SDS011;6539;49.476;8.484;2022-12-29T18:53:21;4.43;;;1.90;;
12947;SDS011;6539;49.476;8.484;2022-12-29T18:55:53;3.83;;;2.00;;
12947;SDS011;6539;49.476;8.484;2022-12-29T18:58:21;5.13;;;2.00;;
12947;SDS011;6539;49.476;8.484;2022-12-29T19:00:54;5.63;;;2.10;;
12947;SDS011;6539;49.476;8.484;2022-12-29T19:03:22;5.43;;;2.33;;
12947;SDS011;6539;49.476;8.484;2022-12-29T19:05:48;4.50;;;1.70;;
12947;SDS011;6539;49.476;8.484;2022-12-29T19:08:13;6.53;;;1.73;;
12947;SDS011;6539;49.476;8.484;2022-12-29T19:10:44;8.67;;;2.27;;